Time;durP1;ratioP1;P1;durP2;ratioP2;P2;SDS_P1;SDS_P2;PMS_P1;PMS_P2;Temp;Humidity;BMP_temperature;BMP_pressure;BME280_temperature;BME280_humidity;BME280_pressure;Samples;Min_cycle;Max_cycle;Signal;HPM_P1;HPM_P2
2023/01/23 00:01:23;;;;;;;10.20;4.15;;;5.30;99.90;;;;;;5035075;28;20055;-67
2023/01/23 00:03:49;;;;;;;9.77;4.25;;;5.40;99.90;;;;;;5050588;28;20506;-67
2023/01/23 00:06:16;;;;;;;8.65;4.05;;;5.50;99.90;;;;;;5032391;28;20060;-66
2023/01/23 00:08:43;;;;;;;7.57;4.20;;;5.00;99.90;;;;;;5039936;28;20045;-68
2023/01/23 00:11:15;;;;;;;8.50;4.47;;;5.50;99.90;;;;;;5031219;28;20487;-66
2023/01/23 00:13:40;;;;;;;8.68;4.18;;;5.50;99.90;;;;;;5049154;28;20558;-66
2023/01/23 00:16:09;;;;;;;7.57;4.10;;;5.10;99.90;;;;;;5031768;28;20116;-67
2023/01/23 00:18:35;;;;;;;10.65;4.30;;;5.10;99.90;;;;;;5036683;28;20045;-66
2023/01/23 00:21:09;;;;;;;13.27;4.57;;;5.20;1.00;;;;;;5031847;28;20487;-67
2023/01/23 00:23:35;;;;;;;13.73;4.30;;;5.20;1.00;;;;;;5036131;28;20036;-66
2023/01/23 00:26:04;;;;;;;11.32;4.43;;;6.00;1.00;;;;;;5032123;28;20080;-67
2023/01/23 00:28:29;;;;;;;9.45;4.90;;;5.40;1.00;;;;;;5055005;28;20033;-67
2023/01/23 00:31:02;;;;;;;9.52;4.70;;;5.30;99.90;;;;;;5037276;28;20129;-66
2023/01/23 00:33:28;;;;;;;10.75;4.70;;;5.20;99.90;;;;;;5015633;28;20124;-67
2023/01/23 00:35:54;;;;;;;13.48;4.55;;;5.60;99.90;;;;;;5028424;28;20125;-67
2023/01/23 00:38:19;;;;;;;15.05;4.53;;;5.60;99.90;;;;;;5031529;28;20033;-66
2023/01/23 00:40:45;;;;;;;8.85;4.03;;;5.30;99.90;;;;;;5051497;28;20183;-66
2023/01/23 00:43:10;;;;;;;7.57;3.92;;;5.50;99.90;;;;;;5044130;28;20038;-68
2023/01/23 00:45:37;;;;;;;10.23;4.05;;;5.70;99.90;;;;;;5048048;28;20045;-68
2023/01/23 00:48:03;;;;;;;11.10;4.57;;;5.40;99.90;;;;;;5044880;28;20123;-66
2023/01/23 00:50:28;;;;;;;8.57;4.00;;;5.50;99.90;;;;;;5040463;28;20042;-66
2023/01/23 00:52:54;;;;;;;9.07;4.40;;;5.60;99.90;;;;;;5030775;28;20071;-67
2023/01/23 00:55:19;;;;;;;9.63;4.78;;;5.70;99.90;;;;;;5048118;28;20077;-67
2023/01/23 00:57:45;;;;;;;11.73;4.75;;;5.30;99.90;;;;;;5049447;28;20540;-67
2023/01/23 01:00:11;;;;;;;10.77;4.40;;;5.60;99.90;;;;;;5018434;28;20050;-66
2023/01/23 01:02:37;;;;;;;10.52;4.63;;;5.70;99.90;;;;;;5019142;28;20558;-66
2023/01/23 01:05:02;;;;;;;10.05;4.20;;;5.30;99.90;;;;;;5056807;28;20167;-66
2023/01/23 01:07:28;;;;;;;9.88;3.92;;;5.70;99.90;;;;;;5050569;28;20049;-68
2023/01/23 01:09:53;;;;;;;9.23;4.15;;;5.40;99.90;;;;;;5041914;28;20052;-67
2023/01/23 01:12:19;;;;;;;8.35;4.25;;;5.40;99.90;;;;;;5051297;28;20063;-67
2023/01/23 01:14:44;;;;;;;9.43;3.65;;;5.70;99.90;;;;;;5050638;28;20052;-68
2023/01/23 01:17:10;;;;;;;8.18;3.97;;;5.70;99.90;;;;;;5051137;28;20680;-67
2023/01/23 01:19:36;;;;;;;9.48;4.15;;;5.60;99.90;;;;;;5034468;28;20076;-66
2023/01/23 01:22:01;;;;;;;10.05;3.83;;;5.70;99.90;;;;;;5031182;28;20514;-67
2023/01/23 01:24:27;;;;;;;9.50;3.60;;;5.30;99.90;;;;;;5041810;28;20107;-66
2023/01/23 01:26:52;;;;;;;11.82;4.15;;;5.30;99.90;;;;;;5047326;28;20077;-66
2023/01/23 01:29:18;;;;;;;10.88;3.92;;;5.70;99.90;;;;;;5026227;28;20040;-65
2023/01/23 01:31:44;;;;;;;9.90;4.15;;;5.30;99.90;;;;;;5029480;28;20087;-67
2023/01/23 01:34:09;;;;;;;9.73;4.00;;;5.10;99.90;;;;;;5030967;28;20042;-66
2023/01/23 01:36:35;;;;;;;8.00;3.63;;;5.20;99.90;;;;;;5048629;28;20045;-66
2023/01/23 01:39:00;;;;;;;11.93;3.83;;;5.20;99.90;;;;;;5050690;28;20493;-67
2023/01/23 01:41:26;;;;;;;9.07;4.10;;;5.60;99.90;;;;;;5042162;28;20037;-67
2023/01/23 01:43:55;;;;;;;9.32;4.18;;;5.20;99.90;;;;;;5027624;28;20050;-65
2023/01/23 01:46:24;;;;;;;7.47;3.92;;;5.30;99.90;;;;;;5046044;28;20048;-66
2023/01/23 01:48:59;;;;;;;11.68;4.50;;;5.10;99.90;;;;;;5042695;28;20076;-67
2023/01/23 01:51:39;;;;;;;9.05;4.10;;;5.30;99.90;;;;;;5027607;28;20049;-66
2023/01/23 01:54:07;;;;;;;15.65;4.90;;;5.50;99.90;;;;;;5032646;28;20570;-67
2023/01/23 01:56:40;;;;;;;15.05;4.82;;;5.00;99.90;;;;;;5051790;28;20056;-67
2023/01/23 01:59:07;;;;;;;10.93;4.72;;;5.50;99.90;;;;;;5027880;28;20519;-67
2023/01/23 02:01:33;;;;;;;11.32;4.70;;;5.10;99.90;;;;;;5044933;28;20048;-66
2023/01/23 02:04:00;;;;;;;19.02;6.05;;;5.60;99.90;;;;;;5064224;28;20471;-66
2023/01/23 02:06:26;;;;;;;13.38;5.03;;;5.40;99.90;;;;;;5047280;28;20033;-67
2023/01/23 02:08:58;;;;;;;12.10;4.63;;;5.70;99.90;;;;;;5062806;28;20061;-65
2023/01/23 02:11:23;;;;;;;12.23;4.68;;;5.70;99.90;;;;;;5046891;28;20120;-66
2023/01/23 02:13:49;;;;;;;12.32;5.35;;;5.30;99.90;;;;;;5047046;28;20120;-68
2023/01/23 02:16:22;;;;;;;12.32;5.10;;;5.50;1.00;;;;;;5047085;28;20044;-67
2023/01/23 02:18:52;;;;;;;11.52;5.25;;;5.50;1.00;;;;;;5054405;28;20033;-66
2023/01/23 02:21:21;;;;;;;19.95;5.78;;;5.20;1.00;;;;;;5047396;28;20045;-65
2023/01/23 02:24:15;;;;;;;13.25;5.53;;;5.20;1.00;;;;;;5033872;28;20052;-67
2023/01/23 02:26:43;;;;;;;17.48;5.70;;;5.70;1.00;;;;;;5043778;28;20121;-67
2023/01/23 02:29:10;;;;;;;17.20;6.25;;;5.10;1.00;;;;;;5040728;28;20048;-67
2023/01/23 02:31:36;;;;;;;15.48;5.82;;;5.70;1.00;;;;;;5013025;28;20089;-66
2023/01/23 02:34:03;;;;;;;20.80;7.03;;;5.40;1.00;;;;;;5023297;28;20049;-66
2023/01/23 02:36:33;;;;;;;15.52;6.50;;;5.70;1.00;;;;;;5036735;28;20044;-67
2023/01/23 02:39:06;;;;;;;20.55;6.72;;;5.70;1.00;;;;;;5038553;28;20112;-66
2023/01/23 02:41:43;;;;;;;16.73;6.40;;;5.60;1.00;;;;;;5015226;28;20088;-66
2023/01/23 02:44:32;;;;;;;19.92;6.63;;;5.50;1.00;;;;;;5048120;28;20032;-66
2023/01/23 02:47:10;;;;;;;16.58;7.03;;;5.80;2.20;;;;;;5047628;28;20430;-67
2023/01/23 02:49:36;;;;;;;20.17;7.28;;;5.50;7.80;;;;;;5052856;28;20045;-66
2023/01/23 02:52:02;;;;;;;16.13;6.78;;;5.60;7.80;;;;;;5032264;28;20033;-68
2023/01/23 02:54:28;;;;;;;15.73;6.90;;;5.40;7.40;;;;;;5050113;28;20046;-67
2023/01/23 02:56:54;;;;;;;11.75;6.13;;;5.30;13.70;;;;;;5033629;28;20037;-67
2023/01/23 03:02:04;;;;;;;18.48;6.60;;;5.40;1.00;;;;;;5033044;28;20555;-66
2023/01/23 03:04:30;;;;;;;11.95;6.45;;;5.40;1.00;;;;;;5051601;28;20037;-66
2023/01/23 03:06:58;;;;;;;17.88;6.57;;;5.30;1.00;;;;;;5033253;28;20051;-67
2023/01/23 03:09:23;;;;;;;17.27;6.82;;;5.80;1.00;;;;;;5040186;28;20447;-68
2023/01/23 03:11:49;;;;;;;17.10;6.32;;;5.80;1.00;;;;;;5053494;28;20116;-66
2023/01/23 03:14:21;;;;;;;17.08;6.75;;;5.40;1.00;;;;;;5052955;28;20073;-66
2023/01/23 03:16:50;;;;;;;14.02;6.40;;;5.70;1.00;;;;;;5035399;28;20037;-67
2023/01/23 03:19:17;;;;;;;17.85;6.70;;;5.80;1.00;;;;;;5058971;28;20132;-68
2023/01/23 03:21:42;;;;;;;14.13;5.70;;;5.40;1.00;;;;;;5053989;28;20044;-66
2023/01/23 03:24:11;;;;;;;14.45;5.97;;;5.60;1.00;;;;;;5052786;28;20398;-67
2023/01/23 03:26:38;;;;;;;13.30;6.53;;;5.70;1.00;;;;;;5035975;28;20048;-66
2023/01/23 03:31:48;;;;;;;11.32;6.20;;;5.40;1.00;;;;;;5034114;28;20092;-66
2023/01/23 03:34:16;;;;;;;14.48;6.05;;;5.70;1.00;;;;;;5049482;28;20487;-69
2023/01/23 03:36:42;;;;;;;15.48;5.57;;;5.30;1.00;;;;;;5033303;28;20045;-69
2023/01/23 03:41:53;;;;;;;8.40;5.32;;;5.40;1.00;;;;;;5029332;28;20078;-65
2023/01/23 03:44:19;;;;;;;11.32;5.47;;;5.30;1.00;;;;;;5035226;28;20068;-65
2023/01/23 03:46:49;;;;;;;8.38;5.38;;;5.80;1.00;;;;;;5034720;28;20041;-67
2023/01/23 03:49:16;;;;;;;13.55;5.70;;;5.30;1.00;;;;;;5051114;28;20041;-66
2023/01/23 03:51:41;;;;;;;12.60;5.88;;;5.30;1.00;;;;;;5050115;28;20038;-66
2023/01/23 03:54:07;;;;;;;11.52;5.15;;;5.50;1.00;;;;;;5051169;28;20047;-66
2023/01/23 03:56:33;;;;;;;9.07;4.85;;;5.30;1.00;;;;;;5033300;28;20065;-66
2023/01/23 03:58:58;;;;;;;9.38;4.35;;;5.60;1.00;;;;;;5048657;28;20155;-66
2023/01/23 04:01:24;;;;;;;9.48;4.70;;;5.40;1.00;;;;;;5031714;28;20040;-67
2023/01/23 04:03:50;;;;;;;9.30;4.47;;;5.70;1.00;;;;;;5048590;28;20144;-67
2023/01/23 04:06:17;;;;;;;8.57;4.60;;;5.80;1.00;;;;;;5047593;28;20045;-65
2023/01/23 04:08:43;;;;;;;10.55;5.00;;;5.80;1.00;;;;;;5046354;28;20049;-66
2023/01/23 04:11:10;;;;;;;9.05;4.30;;;5.60;99.90;;;;;;5031992;28;20041;-67
2023/01/23 04:13:36;;;;;;;7.63;4.38;;;5.50;99.90;;;;;;5048134;28;20033;-67
2023/01/23 04:16:03;;;;;;;10.73;4.60;;;5.70;99.90;;;;;;5031374;28;20034;-67
2023/01/23 04:18:28;;;;;;;8.02;4.50;;;5.50;99.90;;;;;;5031693;28;20084;-67
2023/01/23 04:20:55;;;;;;;8.23;4.63;;;5.70;99.90;;;;;;5048347;28;20041;-66
2023/01/23 04:23:20;;;;;;;9.02;4.85;;;5.60;99.90;;;;;;5042549;28;20059;-66
2023/01/23 04:25:46;;;;;;;15.70;6.38;;;5.80;99.90;;;;;;5048413;28;20029;-65
2023/01/23 04:28:12;;;;;;;12.25;5.20;;;5.80;99.90;;;;;;5040605;28;20037;-67
2023/01/23 04:30:37;;;;;;;11.40;5.18;;;5.70;90.30;;;;;;5044994;28;20450;-66
2023/01/23 04:33:03;;;;;;;11.75;5.30;;;5.90;65.30;;;;;;5047084;28;20357;-67
2023/01/23 04:35:28;;;;;;;10.80;4.38;;;5.50;36.60;;;;;;5031373;28;20048;-66
2023/01/23 04:37:54;;;;;;;8.70;5.22;;;5.80;24.90;;;;;;5036795;28;20033;-67
2023/01/23 04:40:19;;;;;;;12.25;5.93;;;5.40;12.50;;;;;;5050134;28;20536;-66
2023/01/23 04:42:45;;;;;;;10.32;5.43;;;5.50;3.60;;;;;;5014896;28;20045;-65
2023/01/23 04:45:10;;;;;;;12.60;5.35;;;5.50;1.00;;;;;;5031127;28;20041;-66
2023/01/23 04:47:36;;;;;;;13.48;5.45;;;5.70;1.00;;;;;;5052425;28;20096;-65
2023/01/23 04:50:03;;;;;;;10.98;5.30;;;5.40;1.00;;;;;;5030832;28;20045;-67
2023/01/23 04:52:29;;;;;;;12.05;5.45;;;5.70;1.00;;;;;;5030386;28;20037;-67
2023/01/23 04:54:54;;;;;;;14.82;5.80;;;5.40;1.00;;;;;;5031920;28;20036;-67
2023/01/23 04:57:20;;;;;;;12.85;5.60;;;5.50;1.00;;;;;;5014608;28;20065;-68
2023/01/23 04:59:45;;;;;;;11.20;5.65;;;5.40;1.00;;;;;;5026910;28;20041;-66
2023/01/23 05:02:11;;;;;;;10.60;5.05;;;5.60;1.00;;;;;;5048365;28;20779;-66
2023/01/23 05:04:37;;;;;;;8.75;5.45;;;5.40;1.00;;;;;;5050087;28;20551;-66
2023/01/23 05:07:02;;;;;;;11.90;5.60;;;5.40;1.00;;;;;;5048936;28;20396;-65
2023/01/23 05:09:28;;;;;;;10.50;5.50;;;5.70;1.00;;;;;;5048313;28;20053;-67
2023/01/23 05:11:53;;;;;;;12.00;6.05;;;5.60;1.00;;;;;;5031973;28;20041;-65
2023/01/23 05:14:20;;;;;;;12.75;5.80;;;5.30;1.00;;;;;;5047140;28;20042;-66
2023/01/23 05:16:46;;;;;;;8.45;5.28;;;5.70;1.00;;;;;;5051211;28;20037;-67
2023/01/23 05:19:12;;;;;;;10.02;5.25;;;5.30;1.00;;;;;;5040023;28;20033;-65
2023/01/23 05:21:37;;;;;;;11.73;5.18;;;5.40;1.00;;;;;;5033048;28;20045;-66
2023/01/23 05:24:03;;;;;;;12.90;5.55;;;5.30;1.00;;;;;;5047361;28;20042;-66
2023/01/23 05:26:29;;;;;;;15.93;5.28;;;5.30;1.00;;;;;;5033259;28;20038;-65
2023/01/23 05:28:54;;;;;;;13.32;5.57;;;5.40;2.90;;;;;;5037584;28;20097;-66
2023/01/23 05:31:20;;;;;;;14.32;5.38;;;5.30;5.20;;;;;;5023383;28;20053;-66
2023/01/23 05:33:46;;;;;;;10.45;5.43;;;5.70;8.90;;;;;;5029942;28;20034;-67
2023/01/23 05:36:11;;;;;;;14.07;4.90;;;5.40;12.70;;;;;;5014452;28;20123;-66
2023/01/23 05:38:37;;;;;;;16.58;6.28;;;5.60;14.70;;;;;;5050226;28;20033;-66
2023/01/23 05:41:03;;;;;;;14.98;5.28;;;5.50;18.70;;;;;;5067251;28;20092;-65
2023/01/23 05:43:28;;;;;;;14.25;6.20;;;5.40;20.00;;;;;;5041189;28;20128;-66
2023/01/23 05:45:54;;;;;;;11.73;6.10;;;5.40;19.30;;;;;;5054274;28;20466;-65
2023/01/23 05:48:19;;;;;;;10.85;4.90;;;5.40;16.50;;;;;;5048400;28;20513;-68
2023/01/23 05:50:45;;;;;;;10.52;5.57;;;5.80;89.70;;;;;;5050461;28;20041;-66
2023/01/23 05:53:10;;;;;;;10.85;5.40;;;5.40;85.20;;;;;;5043065;28;20120;-67
2023/01/23 05:55:39;;;;;;;12.02;5.53;;;5.60;78.60;;;;;;5047221;28;20068;-67
2023/01/23 05:58:04;;;;;;;15.73;5.80;;;5.60;90.80;;;;;;5045741;28;20042;-67
2023/01/23 06:00:30;;;;;;;12.07;6.00;;;5.50;89.00;;;;;;5035926;28;20037;-66
2023/01/23 06:02:56;;;;;;;14.55;7.43;;;5.30;54.90;;;;;;5038032;28;20556;-66
2023/01/23 06:05:22;;;;;;;16.10;6.47;;;5.60;38.50;;;;;;5047685;28;20049;-66
2023/01/23 06:07:47;;;;;;;15.93;6.90;;;5.50;43.00;;;;;;5033915;28;20056;-65
2023/01/23 06:10:13;;;;;;;11.93;5.97;;;5.50;33.80;;;;;;5059027;28;20517;-66
2023/01/23 06:12:39;;;;;;;15.95;6.25;;;5.30;33.10;;;;;;5041301;28;20037;-68
2023/01/23 06:15:05;;;;;;;11.15;7.05;;;5.30;39.20;;;;;;5051038;28;20047;-67
2023/01/23 06:17:31;;;;;;;11.10;5.90;;;5.50;40.90;;;;;;5018309;28;20510;-67
2023/01/23 06:19:57;;;;;;;15.02;6.53;;;5.70;30.10;;;;;;5051030;28;20025;-66
2023/01/23 06:22:23;;;;;;;11.20;6.00;;;5.40;31.50;;;;;;5050744;28;20068;-68
2023/01/23 06:24:48;;;;;;;13.70;6.15;;;5.60;21.80;;;;;;5033520;28;20049;-65
2023/01/23 06:27:14;;;;;;;526.40;43.67;;;5.40;18.00;;;;;;5044180;28;20076;-68
2023/01/23 06:29:39;;;;;;;15.85;6.32;;;5.30;19.30;;;;;;5031327;28;20052;-66
2023/01/23 06:32:05;;;;;;;14.10;6.78;;;5.70;38.10;;;;;;5050274;28;20037;-66
2023/01/23 06:34:31;;;;;;;11.77;6.43;;;5.30;34.10;;;;;;5051379;28;20398;-67
2023/01/23 06:36:56;;;;;;;12.95;6.20;;;5.30;39.00;;;;;;5030427;28;20034;-68
2023/01/23 06:39:22;;;;;;;14.52;7.10;;;5.20;41.60;;;;;;5030065;28;20372;-67
2023/01/23 06:41:47;;;;;;;17.20;7.22;;;5.60;45.50;;;;;;5062029;28;20065;-65
2023/01/23 06:44:13;;;;;;;13.23;7.35;;;5.40;30.70;;;;;;5039389;28;20037;-67
2023/01/23 06:46:38;;;;;;;17.60;7.70;;;5.30;25.20;;;;;;5034168;28;20037;-67
2023/01/23 06:49:04;;;;;;;16.85;7.88;;;5.20;25.40;;;;;;5037475;28;20494;-67
2023/01/23 06:51:30;;;;;;;13.90;8.35;;;5.60;29.90;;;;;;5037884;28;20465;-67
2023/01/23 06:53:56;;;;;;;19.02;7.95;;;5.60;40.90;;;;;;5031469;28;20494;-67
2023/01/23 06:56:22;;;;;;;18.80;8.35;;;5.70;46.20;;;;;;5035092;28;20037;-66
2023/01/23 06:58:47;;;;;;;19.33;9.18;;;5.30;53.70;;;;;;5043773;28;20068;-67
2023/01/23 07:01:15;;;;;;;17.25;8.80;;;5.30;53.70;;;;;;5031983;28;20045;-66
2023/01/23 07:03:43;;;;;;;19.73;9.35;;;5.30;37.80;;;;;;5043183;28;20041;-66
2023/01/23 07:06:10;;;;;;;16.73;9.05;;;5.20;33.50;;;;;;5038633;28;20042;-66
2023/01/23 07:08:36;;;;;;;74.50;13.63;;;5.10;38.60;;;;;;5049873;28;20058;-65
2023/01/23 07:11:02;;;;;;;20.25;10.43;;;5.70;99.90;;;;;;5040548;28;20469;-66
2023/01/23 07:13:28;;;;;;;17.95;10.05;;;5.40;99.90;;;;;;5046967;28;20411;-65
2023/01/23 07:15:54;;;;;;;18.65;10.20;;;5.70;99.90;;;;;;5048024;28;20086;-67
2023/01/23 07:18:20;;;;;;;13.23;9.32;;;5.20;99.90;;;;;;5054583;28;20025;-66
2023/01/23 07:20:47;;;;;;;18.52;10.15;;;5.30;99.90;;;;;;5065237;28;20033;-66
2023/01/23 07:23:12;;;;;;;17.45;10.82;;;5.20;99.90;;;;;;5032424;28;20485;-64
2023/01/23 07:25:38;;;;;;;18.33;11.68;;;5.50;99.90;;;;;;5029205;28;20124;-64
2023/01/23 07:28:04;;;;;;;20.95;11.30;;;5.10;99.90;;;;;;5029128;28;20046;-64
2023/01/23 07:30:31;;;;;;;17.88;11.75;;;5.50;99.90;;;;;;5031584;28;20042;-66
2023/01/23 07:32:57;;;;;;;22.23;13.02;;;5.40;99.90;;;;;;5061594;28;20099;-64
2023/01/23 07:35:23;;;;;;;21.73;11.95;;;5.40;99.90;;;;;;5046396;28;20069;-65
2023/01/23 07:37:48;;;;;;;23.00;12.68;;;5.30;99.90;;;;;;5023315;28;20069;-65
2023/01/23 07:40:14;;;;;;;22.80;12.32;;;5.60;99.90;;;;;;5026065;28;20041;-64
2023/01/23 07:42:40;;;;;;;18.13;12.05;;;5.40;99.90;;;;;;5029261;28;20046;-65
2023/01/23 07:45:07;;;;;;;19.80;12.75;;;5.30;99.90;;;;;;5033845;28;20083;-64
2023/01/23 07:47:33;;;;;;;23.15;12.98;;;5.50;99.90;;;;;;5042890;28;20537;-65
2023/01/23 07:49:59;;;;;;;20.40;12.63;;;5.30;99.90;;;;;;5028689;28;20041;-66
2023/01/23 07:52:24;;;;;;;19.05;12.07;;;5.30;99.90;;;;;;5034853;28;20040;-64
2023/01/23 07:54:50;;;;;;;18.42;12.88;;;5.40;99.90;;;;;;5028013;28;20029;-64
2023/01/23 07:57:16;;;;;;;18.40;12.32;;;5.40;99.90;;;;;;5042963;28;20037;-65
2023/01/23 07:59:41;;;;;;;20.27;13.30;;;5.60;99.90;;;;;;5033580;28;20430;-65
2023/01/23 08:02:09;;;;;;;22.98;13.00;;;5.40;99.90;;;;;;5034011;28;20037;-64
2023/01/23 08:04:35;;;;;;;19.48;13.15;;;5.70;99.90;;;;;;5022172;28;20060;-65
2023/01/23 08:07:00;;;;;;;17.63;12.35;;;5.40;99.90;;;;;;5046299;28;20049;-65
2023/01/23 08:09:26;;;;;;;18.05;11.93;;;5.70;99.90;;;;;;5032244;28;20048;-65
2023/01/23 08:11:51;;;;;;;20.13;12.07;;;5.70;99.90;;;;;;5055920;28;20468;-65
2023/01/23 08:14:17;;;;;;;19.13;11.32;;;5.80;99.90;;;;;;5025058;28;20064;-65
2023/01/23 08:16:43;;;;;;;16.17;10.55;;;5.40;99.90;;;;;;5049208;28;20517;-65
2023/01/23 08:19:08;;;;;;;18.98;11.25;;;5.40;99.90;;;;;;5033723;28;20037;-67
2023/01/23 08:21:34;;;;;;;16.48;11.10;;;5.70;99.90;;;;;;5024532;28;20401;-63
2023/01/23 08:24:01;;;;;;;16.17;10.43;;;5.80;99.90;;;;;;5023340;28;20479;-64
2023/01/23 08:26:27;;;;;;;16.63;10.63;;;5.80;99.90;;;;;;5018883;28;20054;-63
2023/01/23 08:28:53;;;;;;;19.05;10.77;;;5.60;99.90;;;;;;5029725;28;20044;-64
2023/01/23 08:31:18;;;;;;;21.77;11.85;;;5.70;99.90;;;;;;5023981;28;20044;-64
2023/01/23 08:33:44;;;;;;;18.67;11.60;;;5.70;99.90;;;;;;5036680;28;20036;-64
2023/01/23 08:36:12;;;;;;;20.95;12.07;;;5.80;99.90;;;;;;5062040;28;21624;-65
2023/01/23 08:38:38;;;;;;;19.67;12.57;;;5.30;99.90;;;;;;5031235;28;20478;-63
2023/01/23 08:41:04;;;;;;;20.48;12.88;;;5.80;99.90;;;;;;5030370;28;20037;-66
2023/01/23 08:43:31;;;;;;;22.92;13.23;;;5.70;99.90;;;;;;5031767;28;20536;-66
2023/01/23 08:45:57;;;;;;;20.33;13.05;;;5.50;99.90;;;;;;5051756;28;20068;-64
2023/01/23 08:48:25;;;;;;;17.05;12.52;;;5.80;99.90;;;;;;5029756;28;20091;-64
2023/01/23 08:50:57;;;;;;;20.85;13.77;;;5.50;99.90;;;;;;5038122;28;20076;-64
2023/01/23 08:53:22;;;;;;;17.75;12.32;;;5.50;99.90;;;;;;5026300;28;20038;-64
2023/01/23 08:55:48;;;;;;;18.95;13.38;;;5.90;99.90;;;;;;5048356;28;20425;-64
2023/01/23 08:58:14;;;;;;;22.50;13.23;;;5.70;99.90;;;;;;5048113;28;20040;-65
2023/01/23 09:00:40;;;;;;;22.45;14.68;;;5.50;99.90;;;;;;5041100;28;20037;-64
2023/01/23 09:03:06;;;;;;;23.23;13.93;;;5.80;99.90;;;;;;5026662;28;20128;-64
2023/01/23 09:05:32;;;;;;;22.98;13.48;;;5.90;99.90;;;;;;5030446;28;20120;-64
2023/01/23 09:07:58;;;;;;;20.15;13.30;;;5.70;99.90;;;;;;5058435;28;20059;-64
2023/01/23 09:10:24;;;;;;;24.75;14.02;;;5.60;99.90;;;;;;5034095;28;20499;-65
2023/01/23 09:12:51;;;;;;;22.08;12.77;;;5.90;99.90;;;;;;5034940;28;20365;-64
2023/01/23 09:15:17;;;;;;;21.80;13.13;;;5.70;99.90;;;;;;5034857;28;20044;-64
2023/01/23 09:17:42;;;;;;;20.30;13.05;;;5.60;99.90;;;;;;5050519;28;20033;-64
2023/01/23 09:20:09;;;;;;;17.45;12.70;;;5.60;99.90;;;;;;5029436;28;20038;-65
2023/01/23 09:22:35;;;;;;;17.95;12.48;;;5.90;99.90;;;;;;5046485;28;20045;-64
2023/01/23 09:25:00;;;;;;;20.05;12.18;;;5.80;99.90;;;;;;5027716;28;20033;-65
2023/01/23 09:27:26;;;;;;;24.63;13.57;;;5.90;99.90;;;;;;5029887;28;20526;-64
2023/01/23 09:29:52;;;;;;;19.95;13.05;;;5.60;99.90;;;;;;5031048;28;20399;-64
2023/01/23 09:32:17;;;;;;;17.33;11.88;;;5.70;99.90;;;;;;5033912;28;20030;-64
2023/01/23 09:34:43;;;;;;;16.88;12.13;;;6.00;99.90;;;;;;5050547;28;20036;-64
2023/01/23 09:37:09;;;;;;;16.25;12.07;;;5.70;99.90;;;;;;5050240;28;20124;-64
2023/01/23 09:39:34;;;;;;;20.05;13.38;;;5.70;99.90;;;;;;5057945;28;20076;-65
2023/01/23 09:42:08;;;;;;;17.73;13.05;;;5.70;99.90;;;;;;5055132;28;20383;-65
2023/01/23 09:44:39;;;;;;;21.98;13.38;;;6.60;99.90;;;;;;5031101;28;20083;-64
2023/01/23 09:47:20;;;;;;;16.85;13.02;;;6.00;99.90;;;;;;5025992;28;20048;-63
2023/01/23 09:49:59;;;;;;;23.05;13.52;;;6.10;99.90;;;;;;5028780;28;20041;-64
2023/01/23 09:52:41;;;;;;;19.33;13.60;;;5.80;99.90;;;;;;5044531;28;20411;-65
2023/01/23 09:55:20;;;;;;;19.67;13.30;;;6.00;99.90;;;;;;5045653;28;20071;-64
2023/01/23 09:57:54;;;;;;;23.40;14.00;;;5.70;99.90;;;;;;5027644;28;20589;-64
2023/01/23 10:00:29;;;;;;;19.55;12.25;;;6.00;99.90;;;;;;5018989;28;21466;-65
2023/01/23 10:02:55;;;;;;;18.00;13.13;;;6.00;99.90;;;;;;5031014;28;20048;-66
2023/01/23 10:05:39;;;;;;;18.25;13.85;;;6.00;99.90;;;;;;5046464;28;20068;-65
2023/01/23 10:08:30;;;;;;;23.67;13.00;;;5.70;99.90;;;;;;5027058;28;20049;-65
2023/01/23 10:11:30;;;;;;;18.85;12.80;;;6.00;99.90;;;;;;5027088;28;20125;-64
2023/01/23 10:14:20;;;;;;;20.08;12.20;;;5.70;99.90;;;;;;5000916;28;20038;-64
2023/01/23 10:17:27;;;;;;;18.77;12.73;;;6.10;99.90;;;;;;5036715;28;20049;-65
2023/01/23 10:20:12;;;;;;;21.42;12.90;;;6.00;99.90;;;;;;4953688;28;20145;-64
2023/01/23 10:22:49;;;;;;;18.77;12.52;;;5.80;99.90;;;;;;5023807;28;20060;-65
2023/01/23 10:25:18;;;;;;;19.15;12.48;;;5.80;99.90;;;;;;5026604;28;20147;-66
2023/01/23 10:27:49;;;;;;;16.77;12.63;;;6.00;99.90;;;;;;5030516;28;20662;-64
2023/01/23 10:30:24;;;;;;;16.27;12.23;;;6.20;99.90;;;;;;5029849;28;20107;-64
2023/01/23 10:33:10;;;;;;;21.03;12.83;;;6.00;99.90;;;;;;5024531;28;20029;-65
2023/01/23 10:35:49;;;;;;;18.42;12.07;;;6.00;98.20;;;;;;5038095;28;20050;-65
2023/01/23 10:38:25;;;;;;;18.38;12.68;;;6.00;99.90;;;;;;5020308;28;20559;-64
2023/01/23 10:43:36;;;;;;;21.23;12.85;;;6.10;81.20;;;;;;5020896;28;19921;-67
2023/01/23 10:46:09;;;;;;;18.27;12.50;;;6.30;80.60;;;;;;5027967;28;20529;-64
2023/01/23 10:48:35;;;;;;;18.15;13.25;;;6.30;58.00;;;;;;5040996;28;20053;-64
2023/01/23 10:51:00;;;;;;;15.75;11.88;;;6.30;52.90;;;;;;5045621;28;20037;-64
2023/01/23 10:53:26;;;;;;;18.75;12.77;;;6.00;47.90;;;;;;5032137;28;20063;-64
2023/01/23 10:55:56;;;;;;;22.92;13.38;;;6.30;44.70;;;;;;5033249;28;20164;-64
2023/01/23 10:58:31;;;;;;;17.67;13.13;;;6.10;41.50;;;;;;5033503;28;20112;-65
2023/01/23 11:00:57;;;;;;;20.17;14.27;;;6.40;24.00;;;;;;5042780;28;20029;-65
2023/01/23 11:03:32;;;;;;;25.17;15.88;;;6.20;10.70;;;;;;5033122;28;20514;-65
2023/01/23 11:06:15;;;;;;;23.42;13.60;;;6.40;1.00;;;;;;5034150;28;20038;-65
2023/01/23 11:08:59;;;;;;;18.23;12.43;;;6.30;1.00;;;;;;5037972;28;20064;-64
2023/01/23 11:11:30;;;;;;;18.10;14.32;;;6.20;1.00;;;;;;5050464;28;20142;-66
2023/01/23 11:14:15;;;;;;;19.05;12.77;;;6.20;1.00;;;;;;5029830;28;20171;-66
2023/01/23 11:16:42;;;;;;;18.73;12.48;;;6.40;1.00;;;;;;5028456;28;20479;-65
2023/01/23 11:19:07;;;;;;;17.88;13.40;;;6.20;1.00;;;;;;5031732;28;20112;-65
2023/01/23 11:21:54;;;;;;;18.48;12.93;;;6.50;1.00;;;;;;5014170;28;20136;-66
2023/01/23 11:24:37;;;;;;;20.40;12.32;;;6.30;1.00;;;;;;5030440;28;20186;-65
2023/01/23 11:27:15;;;;;;;16.38;12.52;;;6.50;1.00;;;;;;5044130;28;20506;-66
2023/01/23 11:30:13;;;;;;;18.05;12.93;;;6.40;1.00;;;;;;5044751;28;20060;-66
2023/01/23 11:32:50;;;;;;;17.83;12.98;;;6.50;1.00;;;;;;4990452;28;20084;-66
2023/01/23 11:35:22;;;;;;;19.45;12.77;;;6.40;1.00;;;;;;5034151;28;20056;-65
2023/01/23 11:37:48;;;;;;;17.00;11.75;;;6.50;1.00;;;;;;5032299;28;20120;-66
2023/01/23 11:40:18;;;;;;;17.10;12.57;;;6.60;99.90;;;;;;5047030;28;20137;-65
2023/01/23 11:42:44;;;;;;;16.23;12.32;;;6.60;99.90;;;;;;5031047;28;20049;-67
2023/01/23 11:45:28;;;;;;;16.77;11.60;;;6.60;99.90;;;;;;5024615;28;20038;-66
2023/01/23 11:48:06;;;;;;;15.38;11.23;;;6.70;99.90;;;;;;5029563;28;20095;-65
2023/01/23 11:50:38;;;;;;;14.32;11.77;;;6.50;99.90;;;;;;5038919;28;21466;-64
2023/01/23 11:53:28;;;;;;;14.30;10.40;;;6.70;99.90;;;;;;5047741;28;20055;-64
2023/01/23 11:56:31;;;;;;;11.55;9.38;;;6.50;99.90;;;;;;5033447;28;20124;-63
2023/01/23 11:59:07;;;;;;;13.50;8.80;;;6.70;99.90;;;;;;5041524;28;20045;-68
2023/01/23 12:01:57;;;;;;;11.48;8.65;;;6.60;99.90;;;;;;5022785;28;20058;-67
2023/01/23 12:04:47;;;;;;;11.07;8.65;;;6.60;99.90;;;;;;5045555;28;20052;-66
2023/01/23 12:07:16;;;;;;;12.80;8.57;;;6.70;87.20;;;;;;5031628;28;20437;-67
2023/01/23 12:10:06;;;;;;;9.57;7.78;;;6.70;46.10;;;;;;5047265;28;20084;-67
2023/01/23 12:13:00;;;;;;;8.85;7.07;;;6.60;20.30;;;;;;5024353;28;20045;-66
2023/01/23 12:16:06;;;;;;;4.97;4.35;;;6.70;2.20;;;;;;5024002;28;20099;-65
2023/01/23 12:19:05;;;;;;;4.45;3.38;;;6.60;1.00;;;;;;4993086;28;20042;-66
2023/01/23 12:21:49;;;;;;;4.85;4.38;;;6.70;1.00;;;;;;5046817;28;20505;-66
2023/01/23 12:24:59;;;;;;;4.95;3.83;;;6.60;1.00;;;;;;5048097;28;20289;-67
2023/01/23 12:27:43;;;;;;;5.50;4.20;;;6.60;1.00;;;;;;4998378;28;20123;-67
2023/01/23 12:30:25;;;;;;;4.25;3.85;;;6.60;99.90;;;;;;5034510;28;20042;-66
2023/01/23 12:33:08;;;;;;;7.50;4.30;;;6.50;99.90;;;;;;5041911;28;20124;-66
2023/01/23 12:36:04;;;;;;;5.32;4.10;;;6.50;99.90;;;;;;5032226;28;20049;-66
2023/01/23 12:38:55;;;;;;;5.53;4.07;;;6.50;99.90;;;;;;5051462;28;20041;-67
2023/01/23 12:41:24;;;;;;;7.00;4.10;;;6.50;99.90;;;;;;5029259;28;20638;-67
2023/01/23 12:43:57;;;;;;;8.07;5.00;;;6.50;99.90;;;;;;5033905;28;20149;-66
2023/01/23 12:46:35;;;;;;;5.38;4.20;;;6.50;99.90;;;;;;5016327;28;20091;-67
2023/01/23 12:49:36;;;;;;;4.60;3.90;;;6.50;99.90;;;;;;5053131;28;20033;-67
2023/01/23 12:52:07;;;;;;;7.32;4.03;;;6.50;99.90;;;;;;5032083;28;20125;-67
2023/01/23 12:54:50;;;;;;;4.80;3.28;;;6.50;99.90;;;;;;5031995;28;20033;-66
2023/01/23 12:57:38;;;;;;;6.57;3.30;;;6.50;99.90;;;;;;5038546;28;20052;-67
2023/01/23 13:00:11;;;;;;;6.05;3.53;;;6.40;99.90;;;;;;5028458;28;20146;-68
2023/01/23 13:02:44;;;;;;;4.63;3.63;;;6.40;99.90;;;;;;5020518;28;20049;-66
2023/01/23 13:05:15;;;;;;;6.28;3.63;;;6.40;99.90;;;;;;5000819;28;20124;-67
2023/01/23 13:07:53;;;;;;;7.03;3.80;;;6.30;99.90;;;;;;5036397;28;20499;-66
2023/01/23 13:10:23;;;;;;;8.10;3.65;;;6.20;99.90;;;;;;5031206;28;20072;-65
2023/01/23 13:12:54;;;;;;;5.45;3.38;;;6.20;99.90;;;;;;5048302;28;20120;-67